Time;durP1;ratioP1;P1;durP2;ratioP2;P2;SDS_P1;SDS_P2;PMS_P1;PMS_P2;Temp;Humidity;BMP_temperature;BMP_pressure;BME280_temperature;BME280_humidity;BME280_pressure;Samples;Min_cycle;Max_cycle;Signal;HPM_P1;HPM_P2
2023/10/14 00:00:28;;;;;;;0.60;0.60;;;;;;;;;;6283118;28;20287;-72
2023/10/14 00:03:33;;;;;;;0.60;0.60;;;;;;;;;;6282742;28;20394;-73
2023/10/14 00:06:38;;;;;;;0.90;0.57;;;;;;;;;;6282562;28;20294;-71
2023/10/14 00:09:43;;;;;;;2.13;0.63;;;;;;;;;;6282037;28;20303;-71
2023/10/14 00:12:53;;;;;;;0.60;0.60;;;;;;;;;;6304609;28;20316;-70
2023/10/14 00:16:01;;;;;;;0.70;0.70;;;;;;;;;;6304281;28;20290;-71
2023/10/14 00:19:05;;;;;;;0.63;0.63;;;;;;;;;;6306890;28;20299;-71
2023/10/14 00:22:09;;;;;;;0.73;0.68;;;;;;;;;;6306985;28;20258;-70
2023/10/14 00:25:19;;;;;;;1.05;0.65;;;;;;;;;;6306682;28;20294;-70
2023/10/14 00:28:25;;;;;;;0.60;0.60;;;;;;;;;;6306505;28;20308;-71
2023/10/14 00:31:29;;;;;;;0.75;0.73;;;;;;;;;;6301303;28;20497;-71
2023/10/14 00:34:33;;;;;;;0.70;0.70;;;;;;;;;;6281761;28;20298;-70
2023/10/14 00:37:37;;;;;;;4.47;0.70;;;;;;;;;;6282016;28;20290;-71
2023/10/14 00:40:45;;;;;;;0.63;0.63;;;;;;;;;;6279997;28;20598;-71
2023/10/14 00:43:50;;;;;;;0.80;0.80;;;;;;;;;;6279835;28;20291;-70
2023/10/14 00:46:56;;;;;;;0.70;0.70;;;;;;;;;;6280102;28;20303;-69
2023/10/14 00:50:02;;;;;;;1.20;0.90;;;;;;;;;;6280945;28;20326;-70
2023/10/14 00:53:06;;;;;;;0.90;0.90;;;;;;;;;;6279787;28;20322;-71
2023/10/14 00:56:11;;;;;;;1.00;0.80;;;;;;;;;;6281105;28;20302;-71
2023/10/14 00:59:18;;;;;;;0.85;0.85;;;;;;;;;;6280817;28;20306;-71
2023/10/14 01:02:29;;;;;;;1.85;0.75;;;;;;;;;;6279449;28;20294;-70
2023/10/14 01:05:35;;;;;;;0.88;0.88;;;;;;;;;;6280675;28;20298;-71
2023/10/14 01:08:43;;;;;;;2.05;0.85;;;;;;;;;;6280531;28;20299;-70
2023/10/14 01:11:46;;;;;;;1.75;1.10;;;;;;;;;;6281068;28;20560;-71
2023/10/14 01:14:52;;;;;;;0.80;0.80;;;;;;;;;;6278996;28;20307;-71
2023/10/14 01:17:56;;;;;;;1.10;1.10;;;;;;;;;;6280978;28;20326;-70
2023/10/14 01:21:00;;;;;;;1.25;0.90;;;;;;;;;;6279177;28;20306;-70
2023/10/14 01:24:15;;;;;;;1.20;0.90;;;;;;;;;;6280592;28;20321;-71
2023/10/14 01:27:21;;;;;;;1.73;0.82;;;;;;;;;;6296220;28;20299;-70
2023/10/14 01:30:26;;;;;;;1.02;1.02;;;;;;;;;;6278640;28;20378;-71
2023/10/14 01:33:35;;;;;;;1.75;1.05;;;;;;;;;;6301435;28;20302;-71
2023/10/14 01:36:41;;;;;;;0.80;0.80;;;;;;;;;;6304342;28;20381;-71
2023/10/14 01:39:48;;;;;;;1.02;0.90;;;;;;;;;;6303709;28;20483;-71
2023/10/14 01:42:56;;;;;;;1.23;0.80;;;;;;;;;;6303376;28;20310;-71
2023/10/14 01:46:02;;;;;;;1.10;1.10;;;;;;;;;;6302811;28;20310;-70
2023/10/14 01:49:16;;;;;;;1.75;1.00;;;;;;;;;;6303266;28;20495;-70
2023/10/14 01:52:20;;;;;;;1.23;0.93;;;;;;;;;;6304072;28;20290;-70
2023/10/14 01:55:25;;;;;;;0.88;0.88;;;;;;;;;;6303322;28;20294;-71
2023/10/14 01:58:32;;;;;;;1.52;1.00;;;;;;;;;;6304789;28;20298;-71
2023/10/14 02:01:41;;;;;;;0.90;0.90;;;;;;;;;;6303789;28;20494;-71
2023/10/14 02:04:46;;;;;;;0.90;0.90;;;;;;;;;;6308166;28;20298;-71
2023/10/14 02:07:52;;;;;;;1.10;1.00;;;;;;;;;;6309557;28;20298;-72
2023/10/14 02:10:58;;;;;;;0.95;0.95;;;;;;;;;;6302297;28;20298;-71
2023/10/14 02:14:06;;;;;;;0.90;0.90;;;;;;;;;;6281375;28;20494;-70
2023/10/14 02:17:12;;;;;;;0.90;0.90;;;;;;;;;;6283430;28;20298;-70
2023/10/14 02:20:28;;;;;;;1.17;0.93;;;;;;;;;;6283261;28;20287;-70
2023/10/14 02:23:43;;;;;;;1.40;1.30;;;;;;;;;;6282368;28;20303;-71
2023/10/14 02:26:49;;;;;;;2.47;0.93;;;;;;;;;;6284491;28;20403;-71
2023/10/14 02:29:55;;;;;;;1.30;1.25;;;;;;;;;;6282013;28;20419;-72
2023/10/14 02:32:59;;;;;;;5.63;1.10;;;;;;;;;;6299780;28;20436;-71
2023/10/14 02:36:04;;;;;;;1.02;1.00;;;;;;;;;;6307096;28;20298;-70
2023/10/14 02:39:13;;;;;;;1.08;1.08;;;;;;;;;;6306946;28;20370;-71
2023/10/14 02:42:20;;;;;;;2.42;1.10;;;;;;;;;;6308698;28;20318;-70
2023/10/14 02:45:24;;;;;;;2.15;0.90;;;;;;;;;;6306501;28;20297;-71
2023/10/14 02:48:49;;;;;;;1.13;1.13;;;;;;;;;;6308441;28;20302;-71
2023/10/14 02:51:52;;;;;;;0.82;0.82;;;;;;;;;;6307927;28;20362;-70
2023/10/14 02:55:18;;;;;;;1.00;1.00;;;;;;;;;;6306404;28;20339;-71
2023/10/14 02:58:22;;;;;;;0.88;0.88;;;;;;;;;;6308147;28;20298;-71
2023/10/14 03:01:31;;;;;;;3.90;1.10;;;;;;;;;;6295843;28;20290;-71
2023/10/14 03:04:42;;;;;;;3.97;1.13;;;;;;;;;;6297466;28;20290;-71
2023/10/14 03:07:50;;;;;;;2.08;0.90;;;;;;;;;;6286790;28;20486;-70
2023/10/14 03:10:55;;;;;;;2.38;0.90;;;;;;;;;;6293367;28;20286;-70
2023/10/14 03:14:02;;;;;;;1.08;1.02;;;;;;;;;;6305607;28;20294;-71
2023/10/14 03:17:08;;;;;;;3.20;1.10;;;;;;;;;;6307923;28;20325;-70
2023/10/14 03:20:25;;;;;;;1.10;1.00;;;;;;;;;;6291115;28;20615;-71
2023/10/14 03:23:35;;;;;;;1.20;1.20;;;;;;;;;;6281268;28;20306;-72
2023/10/14 03:26:39;;;;;;;1.40;1.30;;;;;;;;;;6282836;28;20287;-71
2023/10/14 03:29:54;;;;;;;3.97;1.02;;;;;;;;;;6282291;28;20314;-70
2023/10/14 03:32:58;;;;;;;2.58;1.15;;;;;;;;;;6299005;28;20418;-70
2023/10/14 03:36:03;;;;;;;2.30;1.20;;;;;;;;;;6301421;28;20330;-70
2023/10/14 03:39:21;;;;;;;3.33;1.23;;;;;;;;;;6281163;28;20287;-70
2023/10/14 03:42:32;;;;;;;0.93;0.93;;;;;;;;;;6283042;28;20311;-70
2023/10/14 03:45:48;;;;;;;1.00;1.00;;;;;;;;;;6281765;28;20291;-71
2023/10/14 03:48:54;;;;;;;2.67;1.20;;;;;;;;;;6281373;28;20295;-70
2023/10/14 03:51:59;;;;;;;1.30;1.30;;;;;;;;;;6283001;28;20255;-70
2023/10/14 03:55:06;;;;;;;5.55;1.20;;;;;;;;;;6282138;28;20316;-70
2023/10/14 03:58:13;;;;;;;1.52;1.48;;;;;;;;;;6281722;28;20391;-70
2023/10/14 04:01:23;;;;;;;2.58;1.27;;;;;;;;;;6282301;28;20452;-71
2023/10/14 04:04:28;;;;;;;0.90;0.90;;;;;;;;;;6281806;28;20314;-70
2023/10/14 04:07:32;;;;;;;2.17;1.10;;;;;;;;;;6282002;28;20323;-70
2023/10/14 04:10:43;;;;;;;3.95;1.10;;;;;;;;;;6291672;28;20653;-70
2023/10/14 04:13:58;;;;;;;3.20;1.05;;;;;;;;;;6304764;28;20286;-70
2023/10/14 04:17:19;;;;;;;1.67;1.08;;;;;;;;;;6307019;28;20327;-70
2023/10/14 04:20:29;;;;;;;1.38;1.10;;;;;;;;;;6306303;28;20294;-71
2023/10/14 04:23:38;;;;;;;1.42;1.15;;;;;;;;;;6306480;28;20302;-71
2023/10/14 04:26:43;;;;;;;2.08;1.00;;;;;;;;;;6306329;28;20299;-70
2023/10/14 04:29:57;;;;;;;1.60;1.48;;;;;;;;;;6306193;28;20314;-71
2023/10/14 04:33:16;;;;;;;1.75;1.10;;;;;;;;;;6288908;28;20299;-70
2023/10/14 04:36:36;;;;;;;1.58;1.02;;;;;;;;;;6281550;28;20291;-69
2023/10/14 04:39:43;;;;;;;2.67;1.10;;;;;;;;;;6280988;28;20306;-70
2023/10/14 04:42:48;;;;;;;2.75;1.10;;;;;;;;;;6280709;28;20435;-71
2023/10/14 04:45:53;;;;;;;1.38;1.00;;;;;;;;;;6280410;28;20278;-71
2023/10/14 04:49:06;;;;;;;1.25;1.05;;;;;;;;;;6281365;28;20224;-70
2023/10/14 04:52:10;;;;;;;2.28;1.00;;;;;;;;;;6279326;28;20314;-71
2023/10/14 04:55:25;;;;;;;3.22;1.08;;;;;;;;;;6280972;28;20563;-71
2023/10/14 04:58:30;;;;;;;3.90;1.35;;;;;;;;;;6280328;28;20576;-71
2023/10/14 05:01:34;;;;;;;1.90;1.30;;;;;;;;;;6279686;28;20449;-70
2023/10/14 05:04:41;;;;;;;3.47;1.80;;;;;;;;;;6281064;28;20290;-70
2023/10/14 05:07:45;;;;;;;1.55;1.20;;;;;;;;;;6280947;28;20306;-70
2023/10/14 05:10:51;;;;;;;3.25;1.58;;;;;;;;;;6292344;28;20297;-70
2023/10/14 05:14:07;;;;;;;1.67;1.40;;;;;;;;;;6303345;28;20306;-70
2023/10/14 05:17:16;;;;;;;1.30;1.20;;;;;;;;;;6305693;28;20461;-70
2023/10/14 05:20:28;;;;;;;3.65;1.48;;;;;;;;;;6305306;28;20294;-70
2023/10/14 05:23:32;;;;;;;1.40;1.30;;;;;;;;;;6305425;28;20298;-70
2023/10/14 05:26:44;;;;;;;1.42;1.33;;;;;;;;;;6305919;28;20559;-72
2023/10/14 05:29:50;;;;;;;1.98;1.20;;;;;;;;;;6305037;28;20286;-69
2023/10/14 05:32:54;;;;;;;2.22;1.25;;;;;;;;;;6288967;28;20303;-72
2023/10/14 05:36:01;;;;;;;2.45;1.30;;;;;;;;;;6281283;28;20291;-70
2023/10/14 05:39:06;;;;;;;2.67;1.40;;;;;;;;;;6285018;28;20308;-70
2023/10/14 05:42:16;;;;;;;3.05;1.30;;;;;;;;;;6285312;28;20323;-70
2023/10/14 05:45:21;;;;;;;3.50;1.40;;;;;;;;;;6285199;28;20469;-70
2023/10/14 05:48:30;;;;;;;3.15;1.42;;;;;;;;;;6285184;28;20663;-69
2023/10/14 05:51:36;;;;;;;5.65;1.50;;;;;;;;;;6285641;28;20287;-71
2023/10/14 05:54:41;;;;;;;1.52;1.42;;;;;;;;;;6283088;28;20506;-69
2023/10/14 05:57:47;;;;;;;2.67;1.50;;;;;;;;;;6284714;28;20340;-69
2023/10/14 06:00:51;;;;;;;7.10;1.75;;;;;;;;;;6284442;28;20267;-69
2023/10/14 06:03:56;;;;;;;3.33;1.40;;;;;;;;;;6284706;28;20322;-69
2023/10/14 06:07:01;;;;;;;4.85;1.80;;;;;;;;;;6285000;28;20497;-69
2023/10/14 06:10:10;;;;;;;1.25;1.13;;;;;;;;;;6289747;28;20446;-70
2023/10/14 06:13:14;;;;;;;5.65;1.58;;;;;;;;;;6307561;28;20579;-70
2023/10/14 06:16:19;;;;;;;3.90;1.65;;;;;;;;;;6309787;28;20302;-70
2023/10/14 06:19:23;;;;;;;8.27;1.63;;;;;;;;;;6309301;28;20306;-71
2023/10/14 06:22:29;;;;;;;2.97;1.52;;;;;;;;;;6309268;28;20393;-70
2023/10/14 06:25:34;;;;;;;3.65;1.50;;;;;;;;;;6309674;28;20452;-70
2023/10/14 06:28:38;;;;;;;5.55;1.48;;;;;;;;;;6309000;28;20299;-70
2023/10/14 06:31:42;;;;;;;5.07;1.60;;;;;;;;;;6302961;28;20298;-69
2023/10/14 06:34:57;;;;;;;6.70;1.60;;;;;;;;;;6284378;28;20338;-70
2023/10/14 06:38:04;;;;;;;4.35;1.80;;;;;;;;;;6282473;28;20493;-70
2023/10/14 06:41:11;;;;;;;5.72;1.58;;;;;;;;;;6284149;28;20299;-70
2023/10/14 06:44:15;;;;;;;4.68;1.65;;;;;;;;;;6282404;28;20307;-71
2023/10/14 06:47:21;;;;;;;5.68;1.60;;;;;;;;;;6284173;28;20302;-70
2023/10/14 06:50:26;;;;;;;2.15;1.33;;;;;;;;;;6282165;28;20290;-70
2023/10/14 06:53:31;;;;;;;7.25;1.75;;;;;;;;;;6284067;28;20298;-69
2023/10/14 06:56:35;;;;;;;7.05;1.60;;;;;;;;;;6284454;28;20315;-70
2023/10/14 06:59:39;;;;;;;5.38;2.38;;;;;;;;;;6283488;28;20295;-71
2023/10/14 07:02:43;;;;;;;3.63;2.13;;;;;;;;;;6283861;28;20306;-71
2023/10/14 07:05:48;;;;;;;8.90;1.90;;;;;;;;;;6283737;28;20311;-71
2023/10/14 07:08:53;;;;;;;7.75;1.73;;;;;;;;;;6283100;28;20302;-71
2023/10/14 07:11:57;;;;;;;4.90;1.42;;;;;;;;;;6304468;28;20506;-70
2023/10/14 07:15:02;;;;;;;5.90;1.92;;;;;;;;;;6306206;28;20321;-71
2023/10/14 07:18:08;;;;;;;6.28;2.00;;;;;;;;;;6307721;28;20309;-72
2023/10/14 07:21:14;;;;;;;4.28;1.60;;;;;;;;;;6308574;28;20302;-70
2023/10/14 07:24:20;;;;;;;6.63;2.10;;;;;;;;;;6307872;28;20298;-70
2023/10/14 07:27:24;;;;;;;5.43;1.75;;;;;;;;;;6308040;28;20295;-70
2023/10/14 07:30:28;;;;;;;5.35;1.90;;;;;;;;;;6307117;28;20290;-69
2023/10/14 07:33:32;;;;;;;7.03;2.10;;;;;;;;;;6286340;28;20290;-70
2023/10/14 07:36:37;;;;;;;5.43;1.65;;;;;;;;;;6283390;28;20310;-71
2023/10/14 07:39:50;;;;;;;6.78;2.10;;;;;;;;;;6287287;28;20314;-69
2023/10/14 07:42:56;;;;;;;4.53;1.80;;;;;;;;;;6307007;28;20485;-68
2023/10/14 07:46:00;;;;;;;9.90;2.10;;;;;;;;;;6308077;28;20243;-70
2023/10/14 07:49:07;;;;;;;13.27;1.98;;;;;;;;;;6307581;28;20338;-71
2023/10/14 07:52:14;;;;;;;8.68;2.50;;;;;;;;;;6307826;28;20717;-71
2023/10/14 07:55:22;;;;;;;8.55;1.77;;;;;;;;;;6307810;28;20290;-70
2023/10/14 07:58:28;;;;;;;8.95;1.65;;;;;;;;;;6307006;28;20302;-70
2023/10/14 08:01:32;;;;;;;4.57;1.80;;;;;;;;;;6306831;28;20848;-70
2023/10/14 08:04:36;;;;;;;5.53;1.65;;;;;;;;;;6305798;28;20463;-69
2023/10/14 08:07:45;;;;;;;11.15;2.20;;;;;;;;;;6306703;28;20294;-70
2023/10/14 08:10:51;;;;;;;5.07;1.90;;;;;;;;;;6295682;28;20298;-71
2023/10/14 08:13:56;;;;;;;8.75;1.83;;;;;;;;;;6280079;28;20677;-70
2023/10/14 08:17:00;;;;;;;6.95;1.88;;;;;;;;;;6282193;28;20298;-70
2023/10/14 08:20:12;;;;;;;5.60;2.25;;;;;;;;;;6281972;28;20291;-72
2023/10/14 08:23:17;;;;;;;5.90;2.00;;;;;;;;;;6281420;28;20315;-71
2023/10/14 08:26:26;;;;;;;13.15;2.83;;;;;;;;;;6281845;28;20299;-69
2023/10/14 08:29:32;;;;;;;7.10;1.73;;;;;;;;;;6281017;28;20406;-72
2023/10/14 08:32:37;;;;;;;7.45;2.15;;;;;;;;;;6294637;28;20306;-70
2023/10/14 08:35:42;;;;;;;9.02;1.85;;;;;;;;;;6306663;28;20285;-70
2023/10/14 08:38:47;;;;;;;6.18;2.22;;;;;;;;;;6306213;28;20306;-72
2023/10/14 08:41:54;;;;;;;12.32;2.15;;;;;;;;;;6306158;28;20302;-70
2023/10/14 08:44:59;;;;;;;9.80;2.17;;;;;;;;;;6306089;28;20610;-70
2023/10/14 08:48:03;;;;;;;4.90;1.75;;;;;;;;;;6305951;28;20342;-72
2023/10/14 08:51:07;;;;;;;6.00;2.05;;;;;;;;;;6306172;28;20303;-72
2023/10/14 08:54:12;;;;;;;6.35;1.95;;;;;;;;;;6305898;28;20298;-71
2023/10/14 08:57:17;;;;;;;8.15;1.90;;;;;;;;;;6306330;28;20290;-71
2023/10/14 09:00:23;;;;;;;5.68;2.15;;;;;;;;;;6305643;28;20306;-72
2023/10/14 09:03:27;;;;;;;7.38;1.88;;;;;;;;;;6305460;28;20290;-71
2023/10/14 09:06:32;;;;;;;11.02;2.13;;;;;;;;;;6306132;28;20290;-70
2023/10/14 09:09:36;;;;;;;12.90;2.20;;;;;;;;;;6304092;28;20290;-71
2023/10/14 09:12:42;;;;;;;7.80;2.00;;;;;;;;;;6284058;28;20298;-70
2023/10/14 09:15:46;;;;;;;11.40;1.98;;;;;;;;;;6284154;28;20470;-70
2023/10/14 09:18:58;;;;;;;12.32;2.50;;;;;;;;;;6285739;28;20480;-69
2023/10/14 09:22:03;;;;;;;5.13;2.03;;;;;;;;;;6284838;28;20402;-71
2023/10/14 09:25:07;;;;;;;5.10;2.08;;;;;;;;;;6285347;28;20298;-72
2023/10/14 09:28:13;;;;;;;6.60;1.70;;;;;;;;;;6285045;28;20591;-69
2023/10/14 09:31:17;;;;;;;4.00;1.85;;;;;;;;;;6288238;28;20594;-71
2023/10/14 09:34:22;;;;;;;7.03;2.03;;;;;;;;;;6309826;28;20387;-70
2023/10/14 09:37:27;;;;;;;5.70;1.70;;;;;;;;;;6309998;28;20385;-74
2023/10/14 09:40:32;;;;;;;5.13;1.70;;;;;;;;;;6311000;28;20285;-70
2023/10/14 09:43:39;;;;;;;10.75;2.10;;;;;;;;;;6309757;28;20270;-70
2023/10/14 09:46:44;;;;;;;8.35;1.60;;;;;;;;;;6310326;28;20294;-70
2023/10/14 09:49:48;;;;;;;6.57;1.75;;;;;;;;;;6309794;28;20429;-70
2023/10/14 09:52:53;;;;;;;5.55;1.52;;;;;;;;;;6309124;28;20301;-71
2023/10/14 09:55:58;;;;;;;5.90;1.83;;;;;;;;;;6310009;28;20310;-70
2023/10/14 09:59:11;;;;;;;10.68;2.05;;;;;;;;;;6309376;28;20302;-70
2023/10/14 10:02:16;;;;;;;6.47;1.70;;;;;;;;;;6309780;28;20299;-69
2023/10/14 10:05:26;;;;;;;3.65;1.50;;;;;;;;;;6309037;28;20322;-70
2023/10/14 10:08:52;;;;;;;5.18;1.90;;;;;;;;;;6310050;28;20286;-71
2023/10/14 10:11:58;;;;;;;5.22;1.63;;;;;;;;;;6289157;28;20295;-72
2023/10/14 10:15:06;;;;;;;7.57;2.65;;;;;;;;;;6282175;28;20366;-69
2023/10/14 10:18:12;;;;;;;3.55;1.58;;;;;;;;;;6284009;28;20287;-70
2023/10/14 10:21:18;;;;;;;4.40;1.90;;;;;;;;;;6284547;28;20374;-73
2023/10/14 10:24:25;;;;;;;3.28;1.42;;;;;;;;;;6283000;28;20303;-71
2023/10/14 10:27:28;;;;;;;5.80;1.63;;;;;;;;;;6283868;28;20299;-71
2023/10/14 10:30:46;;;;;;;3.17;1.40;;;;;;;;;;6284454;28;20599;-72
2023/10/14 10:33:56;;;;;;;9.10;2.35;;;;;;;;;;6305535;28;20417;-72
2023/10/14 10:37:03;;;;;;;5.88;1.60;;;;;;;;;;6309500;28;20271;-70
2023/10/14 10:40:10;;;;;;;8.98;1.73;;;;;;;;;;6308606;28;20306;-71
2023/10/14 10:43:15;;;;;;;6.63;1.60;;;;;;;;;;6308339;28;20290;-72
2023/10/14 10:46:38;;;;;;;5.28;1.73;;;;;;;;;;6308672;28;20298;-68
2023/10/14 10:49:59;;;;;;;4.43;1.60;;;;;;;;;;6308774;28;20294;-70
2023/10/14 10:53:19;;;;;;;4.90;1.73;;;;;;;;;;6308236;28;20317;-70
2023/10/14 10:56:28;;;;;;;6.40;1.75;;;;;;;;;;6307524;28;20298;-70
2023/10/14 10:59:32;;;;;;;4.78;1.90;;;;;;;;;;6307964;28;20314;-70
2023/10/14 11:02:39;;;;;;;5.25;1.60;;;;;;;;;;6308098;28;20294;-74
2023/10/14 11:05:44;;;;;;;4.25;1.45;;;;;;;;;;6307850;28;20290;-70
2023/10/14 11:08:48;;;;;;;8.35;2.28;;;;;;;;;;6308191;28;20298;-70
2023/10/14 11:12:00;;;;;;;3.10;1.27;;;;;;;;;;6288199;28;20294;-72
2023/10/14 11:15:07;;;;;;;6.93;1.77;;;;;;;;;;6281229;28;20287;-72
2023/10/14 11:18:13;;;;;;;7.70;1.55;;;;;;;;;;6283128;28;20311;-69
2023/10/14 11:21:37;;;;;;;3.67;1.73;;;;;;;;;;6283048;28;20355;-70
2023/10/14 11:24:42;;;;;;;6.03;1.80;;;;;;;;;;6282472;28;20311;-71
2023/10/14 11:27:47;;;;;;;6.35;1.98;;;;;;;;;;6282492;28;20295;-72
2023/10/14 11:30:55;;;;;;;4.15;1.73;;;;;;;;;;6282290;28;20564;-73
2023/10/14 11:34:02;;;;;;;4.97;1.60;;;;;;;;;;6280324;28;20842;-71
2023/10/14 11:37:09;;;;;;;3.83;1.80;;;;;;;;;;6281104;28;20466;-71
2023/10/14 11:40:14;;;;;;;7.97;1.85;;;;;;;;;;6284150;28;20295;-72
2023/10/14 11:43:21;;;;;;;1.65;1.35;;;;;;;;;;6282336;28;20492;-73
2023/10/14 11:46:25;;;;;;;3.00;1.48;;;;;;;;;;6282935;28;20311;-68
2023/10/14 11:49:32;;;;;;;3.10;1.80;;;;;;;;;;6282599;28;20479;-72
2023/10/14 11:52:37;;;;;;;8.27;2.10;;;;;;;;;;6280761;28;20541;-70
2023/10/14 11:55:41;;;;;;;4.13;1.40;;;;;;;;;;6282624;28;20299;-70
2023/10/14 11:58:45;;;;;;;2.60;1.48;;;;;;;;;;6281993;28;20295;-69
2023/10/14 12:01:49;;;;;;;6.35;1.73;;;;;;;;;;6297372;28;20324;-72
2023/10/14 12:04:54;;;;;;;3.38;1.70;;;;;;;;;;6282039;28;20327;-69
2023/10/14 12:08:01;;;;;;;2.38;1.52;;;;;;;;;;6281990;28;20306;-68
2023/10/14 12:11:05;;;;;;;6.63;1.80;;;;;;;;;;6294076;28;20503;-70
2023/10/14 12:14:11;;;;;;;4.47;1.75;;;;;;;;;;6304545;28;20294;-70
2023/10/14 12:17:15;;;;;;;3.13;2.00;;;;;;;;;;6307027;28;20310;-73
2023/10/14 12:20:22;;;;;;;1.33;1.27;;;;;;;;;;6304880;28;20292;-70
2023/10/14 12:23:26;;;;;;;1.63;0.95;;;;;;;;;;6306170;28;20294;-70
2023/10/14 12:26:31;;;;;;;0.93;0.75;;;;;;;;;;6306922;28;20298;-71
2023/10/14 12:29:42;;;;;;;2.28;1.33;;;;;;;;;;6306390;28;20642;-69
2023/10/14 12:32:46;;;;;;;1.92;0.88;;;;;;;;;;6291035;28;20338;-72
2023/10/14 12:35:52;;;;;;;1.13;1.13;;;;;;;;;;6281679;28;20299;-69
2023/10/14 12:38:56;;;;;;;0.90;0.90;;;;;;;;;;6281644;28;20295;-71
2023/10/14 12:42:03;;;;;;;4.03;1.10;;;;;;;;;;6281552;28;20326;-71
2023/10/14 12:45:12;;;;;;;1.70;1.23;;;;;;;;;;6280867;28;20306;-71
2023/10/14 12:48:17;;;;;;;2.50;1.20;;;;;;;;;;6281072;28;20295;-70
2023/10/14 12:51:25;;;;;;;3.00;0.95;;;;;;;;;;6282132;28;20475;-70
2023/10/14 12:54:34;;;;;;;1.20;1.20;;;;;;;;;;6280795;28;20299;-69
2023/10/14 12:57:39;;;;;;;1.35;1.35;;;;;;;;;;6280788;28;20553;-70
2023/10/14 13:00:43;;;;;;;4.25;1.65;;;;;;;;;;6281446;28;20303;-69
2023/10/14 13:03:52;;;;;;;4.45;1.50;;;;;;;;;;6280634;28;20295;-68
2023/10/14 13:06:57;;;;;;;2.90;1.33;;;;;;;;;;6280246;28;20268;-69
2023/10/14 13:10:05;;;;;;;1.80;1.60;;;;;;;;;;6285344;28;20294;-71
2023/10/14 13:13:12;;;;;;;2.63;1.60;;;;;;;;;;6301692;28;20301;-69
2023/10/14 13:16:16;;;;;;;4.43;1.75;;;;;;;;;;6305734;28;20314;-68
2023/10/14 13:19:23;;;;;;;3.15;1.50;;;;;;;;;;6305491;28;20311;-71
2023/10/14 13:22:29;;;;;;;2.67;1.60;;;;;;;;;;6305437;28;20294;-73
2023/10/14 13:25:36;;;;;;;3.25;1.80;;;;;;;;;;6304806;28;20321;-71
2023/10/14 13:28:43;;;;;;;2.10;1.60;;;;;;;;;;6304921;28;20386;-71
2023/10/14 13:31:49;;;;;;;4.03;1.80;;;;;;;;;;6305802;28;20286;-72
2023/10/14 13:34:57;;;;;;;3.72;1.85;;;;;;;;;;6305372;28;20302;-74
2023/10/14 13:38:03;;;;;;;4.72;1.95;;;;;;;;;;6304298;28;20302;-70
2023/10/14 13:41:09;;;;;;;3.05;1.83;;;;;;;;;;6305679;28;20297;-71
2023/10/14 13:44:13;;;;;;;4.32;1.80;;;;;;;;;;6305132;28;20470;-71
2023/10/14 13:47:17;;;;;;;3.03;1.30;;;;;;;;;;6305881;28;20399;-70
2023/10/14 13:50:22;;;;;;;3.97;1.77;;;;;;;;;;6305084;28;20286;-71
2023/10/14 13:53:32;;;;;;;7.38;1.50;;;;;;;;;;6305057;28;20314;-70
2023/10/14 13:56:36;;;;;;;8.57;1.70;;;;;;;;;;6304870;28;20454;-70
2023/10/14 13:59:40;;;;;;;1.48;1.38;;;;;;;;;;6309771;28;20298;-70
2023/10/14 14:02:44;;;;;;;2.35;1.42;;;;;;;;;;6308994;28;20294;-70
2023/10/14 14:05:48;;;;;;;4.22;1.60;;;;;;;;;;6309902;28;20302;-71
2023/10/14 14:08:54;;;;;;;2.53;1.58;;;;;;;;;;6309477;28;20290;-70
2023/10/14 14:11:58;;;;;;;4.70;1.70;;;;;;;;;;6309469;28;20322;-71
2023/10/14 14:15:06;;;;;;;4.93;1.27;;;;;;;;;;6307114;28;20622;-70
2023/10/14 14:18:10;;;;;;;3.80;1.85;;;;;;;;;;6309188;28;20294;-71
2023/10/14 14:21:14;;;;;;;1.92;1.60;;;;;;;;;;6309322;28;20445;-70
2023/10/14 14:24:22;;;;;;;5.10;1.33;;;;;;;;;;6308858;28;20298;-70
2023/10/14 14:27:26;;;;;;;2.78;1.25;;;;;;;;;;6309272;28;20298;-70
2023/10/14 14:30:31;;;;;;;2.78;1.33;;;;;;;;;;6308335;28;20610;-71
2023/10/14 14:33:35;;;;;;;1.95;1.30;;;;;;;;;;6286875;28;20298;-73
2023/10/14 14:36:39;;;;;;;1.98;1.60;;;;;;;;;;6283849;28;20295;-72
2023/10/14 14:39:44;;;;;;;4.00;1.73;;;;;;;;;;6283292;28;20295;-70
2023/10/14 14:42:48;;;;;;;3.47;1.50;;;;;;;;;;6283385;28;20556;-71
2023/10/14 14:45:52;;;;;;;6.43;1.60;;;;;;;;;;6283132;28;20291;-68
2023/10/14 14:48:59;;;;;;;4.70;1.48;;;;;;;;;;6283619;28;20306;-70
2023/10/14 14:52:04;;;;;;;1.05;0.90;;;;;;;;;;6282165;28;20445;-70
2023/10/14 14:55:14;;;;;;;1.27;1.17;;;;;;;;;;6282494;28;20322;-70
2023/10/14 14:58:23;;;;;;;4.80;1.20;;;;;;;;;;6284348;28;20295;-69
2023/10/14 15:01:31;;;;;;;1.15;1.00;;;;;;;;;;6284166;28;20314;-69
2023/10/14 15:04:37;;;;;;;1.55;1.45;;;;;;;;;;6283323;28;20303;-69
2023/10/14 15:07:42;;;;;;;1.63;1.52;;;;;;;;;;6283436;28;20335;-71
2023/10/14 15:10:47;;;;;;;1.95;1.27;;;;;;;;;;6292096;28;20586;-70
2023/10/14 15:13:51;;;;;;;2.42;1.10;;;;;;;;;;6306105;28;20294;-72
2023/10/14 15:16:55;;;;;;;4.18;1.50;;;;;;;;;;6308484;28;20456;-70
2023/10/14 15:19:59;;;;;;;2.45;1.15;;;;;;;;;;6307948;28;20294;-71
2023/10/14 15:23:03;;;;;;;3.88;1.45;;;;;;;;;;6308051;28;20302;-70
2023/10/14 15:26:08;;;;;;;4.88;1.52;;;;;;;;;;6308011;28;20582;-70
2023/10/14 15:29:12;;;;;;;7.07;1.60;;;;;;;;;;6307591;28;20302;-71
2023/10/14 15:32:17;;;;;;;1.85;1.70;;;;;;;;;;6297120;28;20299;-71
2023/10/14 15:35:26;;;;;;;6.50;1.70;;;;;;;;;;6280996;28;20526;-69
2023/10/14 15:38:30;;;;;;;2.80;1.20;;;;;;;;;;6282338;28;20491;-71
2023/10/14 15:41:35;;;;;;;5.90;1.75;;;;;;;;;;6282999;28;20310;-70
2023/10/14 15:44:41;;;;;;;6.30;2.03;;;;;;;;;;6282566;28;20298;-70
2023/10/14 15:47:48;;;;;;;7.20;3.00;;;;;;;;;;6283110;28;20296;-69
2023/10/14 15:50:53;;;;;;;6.15;3.70;;;;;;;;;;6282919;28;20302;-71
2023/10/14 15:54:02;;;;;;;10.02;3.85;;;;;;;;;;6283001;28;20382;-70
2023/10/14 15:57:08;;;;;;;16.63;6.07;;;;;;;;;;6283255;28;20607;-68
2023/10/14 16:00:23;;;;;;;10.48;4.35;;;;;;;;;;6282299;28;20298;-69
2023/10/14 16:03:27;;;;;;;10.35;4.07;;;;;;;;;;6281849;28;20588;-70
2023/10/14 16:06:31;;;;;;;10.32;3.50;;;;;;;;;;6282564;28;20302;-70
2023/10/14 16:09:35;;;;;;;7.90;2.58;;;;;;;;;;6283120;28;20507;-71
2023/10/14 16:12:41;;;;;;;4.95;2.38;;;;;;;;;;6306831;28;20291;-70
2023/10/14 16:15:45;;;;;;;4.05;2.17;;;;;;;;;;6304755;28;20298;-72
2023/10/14 16:18:49;;;;;;;8.10;2.80;;;;;;;;;;6306905;28;20290;-71
2023/10/14 16:21:55;;;;;;;13.65;2.90;;;;;;;;;;6305326;28;20294;-69
2023/10/14 16:25:01;;;;;;;6.40;2.10;;;;;;;;;;6306220;28;20310;-71
2023/10/14 16:28:07;;;;;;;10.35;2.25;;;;;;;;;;6305749;28;20305;-71
2023/10/14 16:31:11;;;;;;;6.80;1.90;;;;;;;;;;6304813;28;20294;-68
2023/10/14 16:34:15;;;;;;;11.43;2.53;;;;;;;;;;6281442;28;20298;-69
2023/10/14 16:37:20;;;;;;;5.95;2.72;;;;;;;;;;6281583;28;20291;-71
2023/10/14 16:40:26;;;;;;;7.53;2.25;;;;;;;;;;6281098;28;20488;-71
2023/10/14 16:43:32;;;;;;;5.22;2.25;;;;;;;;;;6281465;28;20291;-70
2023/10/14 16:46:36;;;;;;;5.10;2.13;;;;;;;;;;6281397;28;20338;-72
2023/10/14 16:49:43;;;;;;;6.68;2.42;;;;;;;;;;6280996;28;20290;-71
2023/10/14 16:52:49;;;;;;;6.40;2.80;;;;;;;;;;6280729;28;20516;-73
2023/10/14 16:55:53;;;;;;;7.28;2.65;;;;;;;;;;6281296;28;20298;-71
2023/10/14 16:58:58;;;;;;;9.15;2.00;;;;;;;;;;6280985;28;20343;-70
2023/10/14 17:02:02;;;;;;;4.53;2.25;;;;;;;;;;6281609;28;20291;-72
2023/10/14 17:05:07;;;;;;;4.80;2.67;;;;;;;;;;6279158;28;20295;-72
2023/10/14 17:08:11;;;;;;;6.90;2.40;;;;;;;;;;6280623;28;20421;-71
2023/10/14 17:11:15;;;;;;;5.47;2.13;;;;;;;;;;6296141;28;20389;-70
2023/10/14 17:14:21;;;;;;;3.35;1.95;;;;;;;;;;6303514;28;20309;-69
2023/10/14 17:17:26;;;;;;;7.55;2.50;;;;;;;;;;6306053;28;20308;-69
2023/10/14 17:20:33;;;;;;;10.48;2.60;;;;;;;;;;6305135;28;20294;-69
2023/10/14 17:23:39;;;;;;;5.57;2.58;;;;;;;;;;6305788;28;20298;-71
2023/10/14 17:26:45;;;;;;;5.32;2.10;;;;;;;;;;6304358;28;20310;-69
2023/10/14 17:29:51;;;;;;;11.43;2.58;;;;;;;;;;6293054;28;20607;-69
2023/10/14 17:32:55;;;;;;;6.90;2.13;;;;;;;;;;6298799;28;20294;-69
2023/10/14 17:35:59;;;;;;;8.18;2.33;;;;;;;;;;6310604;28;20301;-71
2023/10/14 17:39:05;;;;;;;3.78;2.10;;;;;;;;;;6310006;28;20301;-72
2023/10/14 17:42:09;;;;;;;7.22;2.53;;;;;;;;;;6309182;28;20305;-71
2023/10/14 17:45:16;;;;;;;8.90;2.42;;;;;;;;;;6284904;28;20299;-71
2023/10/14 17:48:20;;;;;;;10.43;2.58;;;;;;;;;;6284893;28;20362;-73
2023/10/14 17:51:24;;;;;;;10.82;2.47;;;;;;;;;;6283553;28;20487;-70
2023/10/14 17:54:29;;;;;;;10.38;2.50;;;;;;;;;;6284747;28;20306;-70
2023/10/14 17:57:34;;;;;;;5.82;2.33;;;;;;;;;;6284660;28;20559;-68
2023/10/14 18:00:41;;;;;;;7.32;2.45;;;;;;;;;;6285356;28;20298;-69
2023/10/14 18:03:45;;;;;;;6.97;2.63;;;;;;;;;;6284337;28;20440;-70
2023/10/14 18:06:50;;;;;;;9.88;2.17;;;;;;;;;;6283450;28;20525;-68
2023/10/14 18:09:54;;;;;;;5.97;2.20;;;;;;;;;;6287372;28;20294;-69
2023/10/14 18:12:58;;;;;;;10.80;2.33;;;;;;;;;;6309616;28;20290;-71
2023/10/14 18:16:11;;;;;;;5.78;2.15;;;;;;;;;;6307550;28;20250;-70
2023/10/14 18:19:18;;;;;;;7.38;2.47;;;;;;;;;;6310114;28;20298;-74
2023/10/14 18:22:23;;;;;;;3.25;1.95;;;;;;;;;;6309238;28;20294;-73
2023/10/14 18:25:29;;;;;;;5.57;2.55;;;;;;;;;;6307857;28;20286;-70
2023/10/14 18:28:35;;;;;;;5.60;2.20;;;;;;;;;;6308943;28;20294;-70
2023/10/14 18:31:44;;;;;;;7.85;2.42;;;;;;;;;;6304623;28;20299;-71
2023/10/14 18:34:48;;;;;;;8.18;2.45;;;;;;;;;;6284766;28;20483;-72
2023/10/14 18:37:53;;;;;;;7.30;2.47;;;;;;;;;;6283624;28;20788;-77